sensor_id;sensor_type;location;lat;lon;timestamp;pressure;altitude;pressure_sealevel;temperature;humidity
7824;BME280;3957;48.61947800;9.05303100;2023-12-20T00:00:52;96049.97;;;4.25;100.00
7824;BME280;3957;48.61947800;9.05303100;2023-12-20T00:01:53;96040.25;;;4.25;100.00
7824;BME280;3957;48.61947800;9.05303100;2023-12-20T00:02:55;96045.53;;;4.34;100.00
7824;BME280;3957;48.61947800;9.05303100;2023-12-20T00:03:56;96042.56;;;4.37;100.00
7824;BME280;3957;48.61947800;9.05303100;2023-12-20T00:04:58;96041.41;;;4.31;100.00
7824;BME280;3957;48.61947800;9.05303100;2023-12-20T00:06:00;96027.31;;;4.39;100.00
7824;BME280;3957;48.61947800;9.05303100;2023-12-20T00:07:01;96029.63;;;4.42;100.00
7824;BME280;3957;48.61947800;9.05303100;2023-12-20T00:08:04;96037.88;;;4.47;100.00
7824;BME280;3957;48.61947800;9.05303100;2023-12-20T00:09:06;96041.06;;;4.42;100.00
7824;BME280;3957;48.61947800;9.05303100;2023-12-20T00:10:08;96038.56;;;4.41;100.00
7824;BME280;3957;48.61947800;9.05303100;2023-12-20T00:11:09;96035.25;;;4.39;100.00
7824;BME280;3957;48.61947800;9.05303100;2023-12-20T00:12:11;96036.75;;;4.41;100.00
7824;BME280;3957;48.61947800;9.05303100;2023-12-20T00:13:13;96038.41;;;4.42;100.00
7824;BME280;3957;48.61947800;9.05303100;2023-12-20T00:14:14;96035.25;;;4.47;100.00
7824;BME280;3957;48.61947800;9.05303100;2023-12-20T00:15:16;96027.81;;;4.51;100.00
7824;BME280;3957;48.61947800;9.05303100;2023-12-20T00:16:17;96025.78;;;4.53;100.00
7824;BME280;3957;48.61947800;9.05303100;2023-12-20T00:17:19;96028.97;;;4.48;100.00
7824;BME280;3957;48.61947800;9.05303100;2023-12-20T00:18:21;96022.84;;;4.39;100.00
7824;BME280;3957;48.61947800;9.05303100;2023-12-20T00:19:22;96017.84;;;4.36;100.00
7824;BME280;3957;48.61947800;9.05303100;2023-12-20T00:20:24;96030.78;;;4.48;100.00
7824;BME280;3957;48.61947800;9.05303100;2023-12-20T00:21:26;96024.66;;;4.39;100.00
7824;BME280;3957;48.61947800;9.05303100;2023-12-20T00:22:27;96023.84;;;4.38;100.00
7824;BME280;3957;48.61947800;9.05303100;2023-12-20T00:23:29;96025.97;;;4.51;100.00
7824;BME280;3957;48.61947800;9.05303100;2023-12-20T00:24:30;96017.72;;;4.38;100.00
7824;BME280;3957;48.61947800;9.05303100;2023-12-20T00:25:32;96019.03;;;4.42;100.00
7824;BME280;3957;48.61947800;9.05303100;2023-12-20T00:26:33;96012.91;;;4.41;100.00
7824;BME280;3957;48.61947800;9.05303100;2023-12-20T00:27:35;96011.22;;;4.40;100.00
7824;BME280;3957;48.61947800;9.05303100;2023-12-20T00:28:37;96011.56;;;4.46;100.00
7824;BME280;3957;48.61947800;9.05303100;2023-12-20T00:29:39;96007.25;;;4.36;100.00
7824;BME280;3957;48.61947800;9.05303100;2023-12-20T00:30:40;96016.88;;;4.37;100.00
7824;BME280;3957;48.61947800;9.05303100;2023-12-20T00:31:42;96018.69;;;4.45;100.00
7824;BME280;3957;48.61947800;9.05303100;2023-12-20T00:32:43;96015.88;;;4.38;100.00
7824;BME280;3957;48.61947800;9.05303100;2023-12-20T00:33:47;96008.28;;;4.35;100.00
7824;BME280;3957;48.61947800;9.05303100;2023-12-20T00:34:49;96011.09;;;4.42;100.00
7824;BME280;3957;48.61947800;9.05303100;2023-12-20T00:35:51;96006.09;;;4.47;100.00
7824;BME280;3957;48.61947800;9.05303100;2023-12-20T00:36:53;96011.09;;;4.42;100.00
7824;BME280;3957;48.61947800;9.05303100;2023-12-20T00:37:54;96012.41;;;4.38;100.00
7824;BME280;3957;48.61947800;9.05303100;2023-12-20T00:38:56;96014.41;;;4.36;100.00
7824;BME280;3957;48.61947800;9.05303100;2023-12-20T00:39:58;96005.81;;;4.34;100.00
7824;BME280;3957;48.61947800;9.05303100;2023-12-20T00:41:00;96002.00;;;4.28;100.00
7824;BME280;3957;48.61947800;9.05303100;2023-12-20T00:42:01;96003.00;;;4.19;100.00
7824;BME280;3957;48.61947800;9.05303100;2023-12-20T00:43:03;96006.44;;;4.28;100.00
7824;BME280;3957;48.61947800;9.05303100;2023-12-20T00:44:05;96002.66;;;4.30;100.00
7824;BME280;3957;48.61947800;9.05303100;2023-12-20T00:45:07;96005.63;;;4.27;100.00
7824;BME280;3957;48.61947800;9.05303100;2023-12-20T00:46:08;95999.34;;;4.20;100.00
7824;BME280;3957;48.61947800;9.05303100;2023-12-20T00:47:10;96002.13;;;4.26;100.00
7824;BME280;3957;48.61947800;9.05303100;2023-12-20T00:48:12;95999.34;;;4.20;100.00
7824;BME280;3957;48.61947800;9.05303100;2023-12-20T00:49:14;96003.63;;;4.21;100.00
7824;BME280;3957;48.61947800;9.05303100;2023-12-20T00:50:16;96001.66;;;4.23;100.00
7824;BME280;3957;48.61947800;9.05303100;2023-12-20T00:51:17;95999.66;;;4.17;100.00
7824;BME280;3957;48.61947800;9.05303100;2023-12-20T00:52:19;96000.97;;;4.04;100.00
7824;BME280;3957;48.61947800;9.05303100;2023-12-20T00:53:20;95998.50;;;4.11;100.00
7824;BME280;3957;48.61947800;9.05303100;2023-12-20T00:54:22;95992.22;;;4.12;100.00
7824;BME280;3957;48.61947800;9.05303100;2023-12-20T00:55:23;95994.53;;;4.07;100.00
7824;BME280;3957;48.61947800;9.05303100;2023-12-20T00:56:25;95992.41;;;4.02;100.00
7824;BME280;3957;48.61947800;9.05303100;2023-12-20T00:57:26;95989.41;;;4.05;100.00
7824;BME280;3957;48.61947800;9.05303100;2023-12-20T00:58:28;95997.19;;;4.07;100.00
7824;BME280;3957;48.61947800;9.05303100;2023-12-20T00:59:30;95991.41;;;3.95;100.00
7824;BME280;3957;48.61947800;9.05303100;2023-12-20T01:00:31;95999.81;;;3.90;100.00
7824;BME280;3957;48.61947800;9.05303100;2023-12-20T01:01:33;96003.97;;;4.01;100.00
7824;BME280;3957;48.61947800;9.05303100;2023-12-20T01:02:35;95998.19;;;3.89;100.00
7824;BME280;3957;48.61947800;9.05303100;2023-12-20T01:03:36;96003.31;;;3.99;100.00
7824;BME280;3957;48.61947800;9.05303100;2023-12-20T01:04:38;96003.16;;;3.92;100.00
7824;BME280;3957;48.61947800;9.05303100;2023-12-20T01:05:40;96014.06;;;3.89;100.00
7824;BME280;3957;48.61947800;9.05303100;2023-12-20T01:06:42;96011.72;;;3.86;100.00
7824;BME280;3957;48.61947800;9.05303100;2023-12-20T01:07:43;96017.53;;;3.82;100.00
7824;BME280;3957;48.61947800;9.05303100;2023-12-20T01:08:45;96011.25;;;3.83;100.00
7824;BME280;3957;48.61947800;9.05303100;2023-12-20T01:09:47;96018.84;;;3.86;100.00
7824;BME280;3957;48.61947800;9.05303100;2023-12-20T01:10:49;96010.72;;;3.79;100.00
7824;BME280;3957;48.61947800;9.05303100;2023-12-20T01:11:50;96016.22;;;3.86;100.00
7824;BME280;3957;48.61947800;9.05303100;2023-12-20T01:12:52;96019.47;;;3.71;100.00
7824;BME280;3957;48.61947800;9.05303100;2023-12-20T01:13:53;96018.00;;;3.61;100.00
7824;BME280;3957;48.61947800;9.05303100;2023-12-20T01:14:55;96022.25;;;3.62;100.00
7824;BME280;3957;48.61947800;9.05303100;2023-12-20T01:15:56;96022.78;;;3.65;100.00
7824;BME280;3957;48.61947800;9.05303100;2023-12-20T01:16:58;96011.19;;;3.58;100.00
7824;BME280;3957;48.61947800;9.05303100;2023-12-20T01:17:59;96019.13;;;3.58;100.00
7824;BME280;3957;48.61947800;9.05303100;2023-12-20T01:19:01;96019.63;;;3.62;100.00
7824;BME280;3957;48.61947800;9.05303100;2023-12-20T01:20:03;96020.81;;;3.59;100.00
7824;BME280;3957;48.61947800;9.05303100;2023-12-20T01:21:04;96019.13;;;3.50;100.00
7824;BME280;3957;48.61947800;9.05303100;2023-12-20T01:22:06;96025.91;;;3.52;100.00
7824;BME280;3957;48.61947800;9.05303100;2023-12-20T01:23:08;96023.88;;;3.46;100.00
7824;BME280;3957;48.61947800;9.05303100;2023-12-20T01:24:09;96020.25;;;3.47;100.00
7824;BME280;3957;48.61947800;9.05303100;2023-12-20T01:25:11;96022.88;;;3.39;100.00
7824;BME280;3957;48.61947800;9.05303100;2023-12-20T01:26:12;96022.22;;;3.45;100.00
7824;BME280;3957;48.61947800;9.05303100;2023-12-20T01:27:14;96020.25;;;3.47;100.00
7824;BME280;3957;48.61947800;9.05303100;2023-12-20T01:28:15;96019.28;;;3.48;100.00
7824;BME280;3957;48.61947800;9.05303100;2023-12-20T01:29:17;96011.97;;;3.42;100.00
7824;BME280;3957;48.61947800;9.05303100;2023-12-20T01:30:18;96019.09;;;3.42;100.00
7824;BME280;3957;48.61947800;9.05303100;2023-12-20T01:31:20;96014.13;;;3.38;100.00
7824;BME280;3957;48.61947800;9.05303100;2023-12-20T01:32:22;96023.22;;;3.36;100.00
7824;BME280;3957;48.61947800;9.05303100;2023-12-20T01:33:23;96021.22;;;3.38;100.00
7824;BME280;3957;48.61947800;9.05303100;2023-12-20T01:34:25;96022.19;;;3.37;100.00
7824;BME280;3957;48.61947800;9.05303100;2023-12-20T01:35:27;96022.06;;;3.38;100.00
7824;BME280;3957;48.61947800;9.05303100;2023-12-20T01:36:28;96023.03;;;3.37;100.00
7824;BME280;3957;48.61947800;9.05303100;2023-12-20T01:37:30;96016.41;;;3.33;100.00
7824;BME280;3957;48.61947800;9.05303100;2023-12-20T01:38:31;96023.69;;;3.39;100.00
7824;BME280;3957;48.61947800;9.05303100;2023-12-20T01:39:33;96019.25;;;3.40;100.00
7824;BME280;3957;48.61947800;9.05303100;2023-12-20T01:40:35;96021.72;;;3.33;100.00
7824;BME280;3957;48.61947800;9.05303100;2023-12-20T01:41:36;96023.38;;;3.34;100.00
7824;BME280;3957;48.61947800;9.05303100;2023-12-20T01:42:38;96023.84;;;3.38;100.00
7824;BME280;3957;48.61947800;9.05303100;2023-12-20T01:43:40;96024.34;;;3.33;100.00
7824;BME280;3957;48.61947800;9.05303100;2023-12-20T01:44:51;96021.53;;;3.35;100.00
7824;BME280;3957;48.61947800;9.05303100;2023-12-20T01:45:56;96022.69;;;3.32;100.00
7824;BME280;3957;48.61947800;9.05303100;2023-12-20T01:46:58;96026.34;;;3.39;100.00
7824;BME280;3957;48.61947800;9.05303100;2023-12-20T01:48:00;96027.19;;;3.40;100.00
7824;BME280;3957;48.61947800;9.05303100;2023-12-20T01:49:03;96026.00;;;3.34;100.00
7824;BME280;3957;48.61947800;9.05303100;2023-12-20T01:50:05;96023.34;;;3.26;100.00
7824;BME280;3957;48.61947800;9.05303100;2023-12-20T01:51:10;96027.16;;;3.32;100.00
7824;BME280;3957;48.61947800;9.05303100;2023-12-20T01:52:12;96027.97;;;3.32;100.00
7824;BME280;3957;48.61947800;9.05303100;2023-12-20T01:53:14;96019.84;;;3.26;100.00
7824;BME280;3957;48.61947800;9.05303100;2023-12-20T01:54:17;96028.78;;;3.33;100.00
7824;BME280;3957;48.61947800;9.05303100;2023-12-20T01:55:20;96015.91;;;3.30;100.00
7824;BME280;3957;48.61947800;9.05303100;2023-12-20T01:56:23;96029.44;;;3.27;100.00
7824;BME280;3957;48.61947800;9.05303100;2023-12-20T01:57:25;96026.47;;;3.30;100.00
7824;BME280;3957;48.61947800;9.05303100;2023-12-20T01:58:27;96022.88;;;3.39;100.00
7824;BME280;3957;48.61947800;9.05303100;2023-12-20T01:59:29;96023.22;;;3.36;100.00
7824;BME280;3957;48.61947800;9.05303100;2023-12-20T02:00:31;96026.66;;;3.36;100.00
7824;BME280;3957;48.61947800;9.05303100;2023-12-20T02:01:33;96026.00;;;3.26;100.00
7824;BME280;3957;48.61947800;9.05303100;2023-12-20T02:02:36;96024.66;;;3.22;100.00
7824;BME280;3957;48.61947800;9.05303100;2023-12-20T02:03:41;96011.06;;;3.17;100.00
7824;BME280;3957;48.61947800;9.05303100;2023-12-20T02:04:43;96015.88;;;3.21;100.00
7824;BME280;3957;48.61947800;9.05303100;2023-12-20T02:05:45;96009.09;;;3.27;100.00
7824;BME280;3957;48.61947800;9.05303100;2023-12-20T02:06:48;96014.09;;;3.30;100.00
7824;BME280;3957;48.61947800;9.05303100;2023-12-20T02:07:53;96017.56;;;3.31;100.00
7824;BME280;3957;48.61947800;9.05303100;2023-12-20T02:08:55;96016.09;;;3.36;100.00
7824;BME280;3957;48.61947800;9.05303100;2023-12-20T02:09:57;96023.00;;;3.29;100.00
7824;BME280;3957;48.61947800;9.05303100;2023-12-20T02:10:58;96012.28;;;3.31;100.00
7824;BME280;3957;48.61947800;9.05303100;2023-12-20T02:12:00;96016.38;;;3.25;100.00
7824;BME280;3957;48.61947800;9.05303100;2023-12-20T02:13:02;96019.84;;;3.26;100.00
7824;BME280;3957;48.61947800;9.05303100;2023-12-20T02:14:03;96022.31;;;3.27;100.00
7824;BME280;3957;48.61947800;9.05303100;2023-12-20T02:15:05;96020.69;;;3.26;100.00
7824;BME280;3957;48.61947800;9.05303100;2023-12-20T02:16:07;96022.00;;;3.22;100.00
7824;BME280;3957;48.61947800;9.05303100;2023-12-20T02:17:09;96020.00;;;3.24;100.00
7824;BME280;3957;48.61947800;9.05303100;2023-12-20T02:18:11;96018.06;;;3.26;100.00
7824;BME280;3957;48.61947800;9.05303100;2023-12-20T02:19:17;96020.38;;;3.29;100.00
7824;BME280;3957;48.61947800;9.05303100;2023-12-20T02:20:19;96029.28;;;3.28;100.00
7824;BME280;3957;48.61947800;9.05303100;2023-12-20T02:21:25;96013.13;;;3.39;100.00
7824;BME280;3957;48.61947800;9.05303100;2023-12-20T02:22:26;96014.41;;;3.27;100.00
7824;BME280;3957;48.61947800;9.05303100;2023-12-20T02:23:28;96012.44;;;3.29;100.00
7824;BME280;3957;48.61947800;9.05303100;2023-12-20T02:24:29;96013.91;;;3.23;100.00
7824;BME280;3957;48.61947800;9.05303100;2023-12-20T02:25:31;96015.25;;;3.28;100.00
7824;BME280;3957;48.61947800;9.05303100;2023-12-20T02:26:33;96014.91;;;3.31;100.00
7824;BME280;3957;48.61947800;9.05303100;2023-12-20T02:27:35;96020.53;;;3.28;100.00
7824;BME280;3957;48.61947800;9.05303100;2023-12-20T02:28:36;96008.44;;;3.25;100.00
7824;BME280;3957;48.61947800;9.05303100;2023-12-20T02:29:38;96013.91;;;3.23;100.00
7824;BME280;3957;48.61947800;9.05303100;2023-12-20T02:30:40;96014.25;;;3.29;100.00
7824;BME280;3957;48.61947800;9.05303100;2023-12-20T02:31:41;96013.59;;;3.35;100.00
7824;BME280;3957;48.61947800;9.05303100;2023-12-20T02:32:43;96014.13;;;3.38;100.00
7824;BME280;3957;48.61947800;9.05303100;2023-12-20T02:33:44;96012.09;;;3.32;100.00
7824;BME280;3957;48.61947800;9.05303100;2023-12-20T02:34:48;96024.00;;;3.28;100.00
7824;BME280;3957;48.61947800;9.05303100;2023-12-20T02:35:50;96014.41;;;3.27;100.00
7824;BME280;3957;48.61947800;9.05303100;2023-12-20T02:36:51;96005.13;;;3.23;100.00
7824;BME280;3957;48.61947800;9.05303100;2023-12-20T02:37:53;96004.81;;;3.26;100.00
7824;BME280;3957;48.61947800;9.05303100;2023-12-20T02:38:54;96011.63;;;3.29;100.00
7824;BME280;3957;48.61947800;9.05303100;2023-12-20T02:39:56;96011.72;;;3.19;100.00
7824;BME280;3957;48.61947800;9.05303100;2023-12-20T02:40:58;96011.63;;;3.29;100.00
7824;BME280;3957;48.61947800;9.05303100;2023-12-20T02:41:59;96013.09;;;3.31;100.00
7824;BME280;3957;48.61947800;9.05303100;2023-12-20T02:43:01;96012.44;;;3.29;100.00
7824;BME280;3957;48.61947800;9.05303100;2023-12-20T02:44:03;96010.13;;;3.26;100.00
7824;BME280;3957;48.61947800;9.05303100;2023-12-20T02:45:05;96010.94;;;3.27;100.00
7824;BME280;3957;48.61947800;9.05303100;2023-12-20T02:46:06;96015.56;;;3.25;100.00
7824;BME280;3957;48.61947800;9.05303100;2023-12-20T02:47:08;96018.88;;;3.27;100.00
7824;BME280;3957;48.61947800;9.05303100;2023-12-20T02:48:10;96012.75;;;3.26;100.00
7824;BME280;3957;48.61947800;9.05303100;2023-12-20T02:49:11;96011.72;;;3.19;100.00
7824;BME280;3957;48.61947800;9.05303100;2023-12-20T02:50:13;96004.81;;;3.18;100.00
7824;BME280;3957;48.61947800;9.05303100;2023-12-20T02:51:15;96016.88;;;3.20;100.00
7824;BME280;3957;48.61947800;9.05303100;2023-12-20T02:52:16;96015.25;;;3.28;100.00
7824;BME280;3957;48.61947800;9.05303100;2023-12-20T02:53:18;96010.78;;;3.28;100.00
7824;BME280;3957;48.61947800;9.05303100;2023-12-20T02:54:20;96017.38;;;3.24;100.00
7824;BME280;3957;48.61947800;9.05303100;2023-12-20T02:55:21;96009.94;;;3.19;100.00
7824;BME280;3957;48.61947800;9.05303100;2023-12-20T02:56:23;96016.38;;;3.25;100.00
7824;BME280;3957;48.61947800;9.05303100;2023-12-20T02:57:24;96010.94;;;3.27;100.00
7824;BME280;3957;48.61947800;9.05303100;2023-12-20T02:58:26;96013.94;;;3.32;100.00
7824;BME280;3957;48.61947800;9.05303100;2023-12-20T02:59:27;96015.41;;;3.26;100.00
7824;BME280;3957;48.61947800;9.05303100;2023-12-20T03:00:29;96009.97;;;3.28;100.00
7824;BME280;3957;48.61947800;9.05303100;2023-12-20T03:01:30;96013.91;;;3.23;100.00
7824;BME280;3957;48.61947800;9.05303100;2023-12-20T03:02:32;96019.16;;;3.15;100.00
7824;BME280;3957;48.61947800;9.05303100;2023-12-20T03:03:34;96018.47;;;3.13;100.00
7824;BME280;3957;48.61947800;9.05303100;2023-12-20T03:04:35;96016.88;;;3.20;100.00
7824;BME280;3957;48.61947800;9.05303100;2023-12-20T03:05:37;96020.19;;;3.22;100.00
7824;BME280;3957;48.61947800;9.05303100;2023-12-20T03:06:39;96019.53;;;3.20;100.00
7824;BME280;3957;48.61947800;9.05303100;2023-12-20T03:07:40;96021.16;;;3.21;100.00
7824;BME280;3957;48.61947800;9.05303100;2023-12-20T03:08:42;96021.00;;;3.23;100.00
7824;BME280;3957;48.61947800;9.05303100;2023-12-20T03:09:44;96022.19;;;3.29;100.00
7824;BME280;3957;48.61947800;9.05303100;2023-12-20T03:11:05;96026.97;;;3.25;100.00
7824;BME280;3957;48.61947800;9.05303100;2023-12-20T03:12:07;96027.28;;;3.22;100.00
7824;BME280;3957;48.61947800;9.05303100;2023-12-20T03:13:08;96027.59;;;3.19;100.00
7824;BME280;3957;48.61947800;9.05303100;2023-12-20T03:14:10;96035.84;;;3.16;100.00
7824;BME280;3957;48.61947800;9.05303100;2023-12-20T03:15:12;96035.19;;;3.14;100.00
7824;BME280;3957;48.61947800;9.05303100;2023-12-20T03:16:13;96030.09;;;3.20;100.00
7824;BME280;3957;48.61947800;9.05303100;2023-12-20T03:17:15;96025.94;;;3.18;100.00
7824;BME280;3957;48.61947800;9.05303100;2023-12-20T03:18:16;96032.22;;;3.17;100.00
7824;BME280;3957;48.61947800;9.05303100;2023-12-20T03:19:19;96037.50;;;3.17;100.00
7824;BME280;3957;48.61947800;9.05303100;2023-12-20T03:20:21;96034.19;;;3.15;100.00
7824;BME280;3957;48.61947800;9.05303100;2023-12-20T03:21:22;96035.06;;;3.23;100.00
7824;BME280;3957;48.61947800;9.05303100;2023-12-20T03:22:24;96033.34;;;3.14;100.00
7824;BME280;3957;48.61947800;9.05303100;2023-12-20T03:23:25;96026.91;;;3.09;100.00
7824;BME280;3957;48.61947800;9.05303100;2023-12-20T03:24:28;96025.75;;;3.11;100.00
7824;BME280;3957;48.61947800;9.05303100;2023-12-20T03:25:30;96031.06;;;3.19;100.00
7824;BME280;3957;48.61947800;9.05303100;2023-12-20T03:26:31;96032.53;;;3.14;100.00
7824;BME280;3957;48.61947800;9.05303100;2023-12-20T03:27:33;96040.16;;;3.17;100.00
7824;BME280;3957;48.61947800;9.05303100;2023-12-20T03:28:36;96036.97;;;3.13;100.00
7824;BME280;3957;48.61947800;9.05303100;2023-12-20T03:29:38;96035.88;;;3.24;100.00
7824;BME280;3957;48.61947800;9.05303100;2023-12-20T03:30:39;96032.78;;;3.29;100.00
7824;BME280;3957;48.61947800;9.05303100;2023-12-20T03:31:41;96036.97;;;3.13;100.00
7824;BME280;3957;48.61947800;9.05303100;2023-12-20T03:32:43;96040.94;;;3.09;100.00
7824;BME280;3957;48.61947800;9.05303100;2023-12-20T03:33:45;96046.53;;;3.06;100.00
7824;BME280;3957;48.61947800;9.05303100;2023-12-20T03:34:47;96043.38;;;3.02;100.00
7824;BME280;3957;48.61947800;9.05303100;2023-12-20T03:35:50;96050.19;;;3.13;100.00
7824;BME280;3957;48.61947800;9.05303100;2023-12-20T03:36:51;96045.06;;;3.12;100.00
7824;BME280;3957;48.61947800;9.05303100;2023-12-20T03:37:53;96036.53;;;3.18;100.00
7824;BME280;3957;48.61947800;9.05303100;2023-12-20T03:38:54;96049.25;;;3.22;100.00
7824;BME280;3957;48.61947800;9.05303100;2023-12-20T03:39:56;96047.25;;;3.16;100.00
7824;BME280;3957;48.61947800;9.05303100;2023-12-20T03:40:57;96051.88;;;3.14;100.00
7824;BME280;3957;48.61947800;9.05303100;2023-12-20T03:41:59;96049.72;;;3.10;100.00
7824;BME280;3957;48.61947800;9.05303100;2023-12-20T03:43:00;96048.22;;;3.07;100.00
7824;BME280;3957;48.61947800;9.05303100;2023-12-20T03:44:02;96046.91;;;3.11;100.00
7824;BME280;3957;48.61947800;9.05303100;2023-12-20T03:45:04;96049.53;;;3.11;100.00
7824;BME280;3957;48.61947800;9.05303100;2023-12-20T03:46:08;96052.66;;;3.06;100.00
7824;BME280;3957;48.61947800;9.05303100;2023-12-20T03:47:10;96049.03;;;3.08;100.00
7824;BME280;3957;48.61947800;9.05303100;2023-12-20T03:48:11;96051.81;;;3.06;100.00
7824;BME280;3957;48.61947800;9.05303100;2023-12-20T03:49:13;96057.13;;;3.06;100.00
7824;BME280;3957;48.61947800;9.05303100;2023-12-20T03:50:15;96059.59;;;3.08;100.00
7824;BME280;3957;48.61947800;9.05303100;2023-12-20T03:51:17;96057.94;;;3.06;100.00
7824;BME280;3957;48.61947800;9.05303100;2023-12-20T03:52:18;96059.16;;;3.12;100.00
7824;BME280;3957;48.61947800;9.05303100;2023-12-20T03:53:20;96065.78;;;3.16;100.00
7824;BME280;3957;48.61947800;9.05303100;2023-12-20T03:54:21;96061.25;;;3.09;100.00
7824;BME280;3957;48.61947800;9.05303100;2023-12-20T03:55:23;96057.13;;;3.06;100.00
7824;BME280;3957;48.61947800;9.05303100;2023-12-20T03:56:25;96054.78;;;3.03;100.00
7824;BME280;3957;48.61947800;9.05303100;2023-12-20T03:57:26;96052.16;;;3.03;100.00
7824;BME280;3957;48.61947800;9.05303100;2023-12-20T03:58:28;96057.75;;;3.00;100.00
7824;BME280;3957;48.61947800;9.05303100;2023-12-20T03:59:34;96051.31;;;3.02;100.00
7824;BME280;3957;48.61947800;9.05303100;2023-12-20T04:00:36;96061.88;;;3.02;100.00
7824;BME280;3957;48.61947800;9.05303100;2023-12-20T04:01:37;96060.25;;;3.01;100.00
7824;BME280;3957;48.61947800;9.05303100;2023-12-20T04:02:40;96059.56;;;2.99;100.00
7824;BME280;3957;48.61947800;9.05303100;2023-12-20T04:03:42;96060.03;;;2.95;100.00
7824;BME280;3957;48.61947800;9.05303100;2023-12-20T04:04:44;96060.84;;;2.95;100.00
7824;BME280;3957;48.61947800;9.05303100;2023-12-20T04:05:45;96054.38;;;2.89;100.00
7824;BME280;3957;48.61947800;9.05303100;2023-12-20T04:06:47;96064.31;;;2.87;100.00
7824;BME280;3957;48.61947800;9.05303100;2023-12-20T04:07:49;96058.06;;;2.97;100.00
7824;BME280;3957;48.61947800;9.05303100;2023-12-20T04:08:52;96058.75;;;2.99;100.00
7824;BME280;3957;48.61947800;9.05303100;2023-12-20T04:09:53;96061.53;;;2.97;100.00
7824;BME280;3957;48.61947800;9.05303100;2023-12-20T04:10:55;96069.63;;;2.96;100.00
7824;BME280;3957;48.61947800;9.05303100;2023-12-20T04:11:56;96065.66;;;2.92;100.00
7824;BME280;3957;48.61947800;9.05303100;2023-12-20T04:12:58;96062.69;;;2.95;100.00
7824;BME280;3957;48.61947800;9.05303100;2023-12-20T04:14:00;96058.31;;;2.85;100.00
7824;BME280;3957;48.61947800;9.05303100;2023-12-20T04:15:02;96061.19;;;2.92;100.00
7824;BME280;3957;48.61947800;9.05303100;2023-12-20T04:16:10;96067.28;;;2.93;100.00
7824;BME280;3957;48.61947800;9.05303100;2023-12-20T04:17:11;96061.69;;;2.96;100.00
7824;BME280;3957;48.61947800;9.05303100;2023-12-20T04:18:13;96060.97;;;2.85;100.00
7824;BME280;3957;48.61947800;9.05303100;2023-12-20T04:19:14;96063.59;;;2.85;100.00
7824;BME280;3957;48.61947800;9.05303100;2023-12-20T04:20:16;96061.13;;;2.84;100.00
7824;BME280;3957;48.61947800;9.05303100;2023-12-20T04:21:18;96051.56;;;2.91;100.00
7824;BME280;3957;48.61947800;9.05303100;2023-12-20T04:22:19;96056.88;;;2.91;100.00
7824;BME280;3957;48.61947800;9.05303100;2023-12-20T04:23:21;96057.66;;;2.83;100.00
7824;BME280;3957;48.61947800;9.05303100;2023-12-20T04:24:22;96059.50;;;2.91;100.00
7824;BME280;3957;48.61947800;9.05303100;2023-12-20T04:25:24;96063.28;;;2.88;100.00
7824;BME280;3957;48.61947800;9.05303100;2023-12-20T04:26:26;96077.50;;;2.87;100.00
7824;BME280;3957;48.61947800;9.05303100;2023-12-20T04:27:27;96069.38;;;2.81;100.00
7824;BME280;3957;48.61947800;9.05303100;2023-12-20T04:28:29;96065.06;;;2.80;100.00
7824;BME280;3957;48.61947800;9.05303100;2023-12-20T04:29:34;96060.91;;;2.77;100.00
7824;BME280;3957;48.61947800;9.05303100;2023-12-20T04:30:35;96058.66;;;2.82;100.00
7824;BME280;3957;48.61947800;9.05303100;2023-12-20T04:31:37;96067.22;;;2.84;100.00
7824;BME280;3957;48.61947800;9.05303100;2023-12-20T04:32:38;96059.25;;;2.76;100.00
7824;BME280;3957;48.61947800;9.05303100;2023-12-20T04:33:40;96063.25;;;2.80;100.00
7824;BME280;3957;48.61947800;9.05303100;2023-12-20T04:34:41;96068.06;;;2.85;100.00
7824;BME280;3957;48.61947800;9.05303100;2023-12-20T04:35:43;96062.91;;;2.75;100.00
7824;BME280;3957;48.61947800;9.05303100;2023-12-20T04:36:47;96057.09;;;2.71;100.00
7824;BME280;3957;48.61947800;9.05303100;2023-12-20T04:37:48;96057.09;;;2.71;100.00
7824;BME280;3957;48.61947800;9.05303100;2023-12-20T04:38:50;96066.00;;;2.70;100.00
7824;BME280;3957;48.61947800;9.05303100;2023-12-20T04:39:52;96068.53;;;2.80;100.00
7824;BME280;3957;48.61947800;9.05303100;2023-12-20T04:40:53;96063.50;;;2.69;100.00
7824;BME280;3957;48.61947800;9.05303100;2023-12-20T04:41:55;96074.38;;;2.66;100.00
7824;BME280;3957;48.61947800;9.05303100;2023-12-20T04:42:57;96063.34;;;2.70;100.00
7824;BME280;3957;48.61947800;9.05303100;2023-12-20T04:43:59;96076.06;;;2.67;100.00
7824;BME280;3957;48.61947800;9.05303100;2023-12-20T04:45:02;96070.31;;;2.71;100.00
7824;BME280;3957;48.61947800;9.05303100;2023-12-20T04:46:04;96078.13;;;2.81;100.00
7824;BME280;3957;48.61947800;9.05303100;2023-12-20T04:47:06;96083.34;;;2.73;100.00
7824;BME280;3957;48.61947800;9.05303100;2023-12-20T04:48:07;96087.66;;;2.74;100.00
7824;BME280;3957;48.61947800;9.05303100;2023-12-20T04:49:09;96090.84;;;2.78;100.00
7824;BME280;3957;48.61947800;9.05303100;2023-12-20T04:50:10;96082.53;;;2.72;100.00
7824;BME280;3957;48.61947800;9.05303100;2023-12-20T04:51:14;96084.66;;;2.69;100.00
7824;BME280;3957;48.61947800;9.05303100;2023-12-20T04:52:16;96093.47;;;2.78;100.00
7824;BME280;3957;48.61947800;9.05303100;2023-12-20T04:53:18;96089.97;;;2.77;100.00
7824;BME280;3957;48.61947800;9.05303100;2023-12-20T04:54:19;96090.78;;;2.69;100.00
7824;BME280;3957;48.61947800;9.05303100;2023-12-20T04:55:21;96098.59;;;2.79;100.00
7824;BME280;3957;48.61947800;9.05303100;2023-12-20T04:56:22;96098.59;;;2.79;100.00